Main page
METAR-TAF:

METAR-TAF

Airports :

O. R. Tambo International Airport

Johannesburg, South Africa

latitude: 26-08S, longitude: 028-14E, elevation: 1694 m

Current weather observation

The report was made 19 minutes ago, at 07:30 UTC
Wind 13 kt from the North
Temperature 13°C
Humidity 67%
Pressure 1032 hPa
Visibility 10 km or more
no clouds below 1500 m and no cumulonimbus

METAR: FAOR 180730Z 35013KT CAVOK 13/07 Q1032 NOSIG

Time: 09:49 (07:49 UTC)

Forecast

The report was made 3 hours and 32 minutes ago, at 04:17 UTC
Forecast valid from 18 at 06 UTC to 19 at 12 UTC
Wind 10 kt from the North/Northeast
Visibility 10 km or more
no clouds below 1500 m and no cumulonimbus
Becoming
from 18 at 07 UTC to 18 at 09 UTC
Wind 15 kt from the North/Northwest
From 18 at 1400 UTC
Wind 9 kt from the West
Visibility 10 km or more
no clouds below 1500 m and no cumulonimbus

TAF: FAOR 180417Z 1806/1912 03010KT CAVOK TX21/1813Z TN09/1904Z BECMG 1807/1809 34015KT FM181400 27009KT CAVOK

Weather observations and forecasts of more than 4000 airports (METAR and TAF reports).

The available stations are represented by yellow and red dots on the map.

Hover mouse over dot to see the name of the station.

Then click to see weather observations and forecasts.

To change the map : click on the green buttons with a black cross to zoom in, on the green button with a dash to zoom out, or on the green arrows for adjacent maps.


METAR-TAF: